LKMTLKTB

Guest
Details From LKMT - Ostrava Mosnov
To LKTB - Turany
Flight Number -
Tags decoded
Created
Modified
Stats Distance 66 nm / 123 km
Max Altitude 0 ft / 0 m
Waypoints 3
Social Downloads 5
Likes 0
Share VATSIM

Download

Looking for another format? Having issues loading an existing format? Contact us
Advertisement - Login to hide

Notes

Requested: LKMT HLV LKTB

Route

LKMT HLV LKTB

ID Type Via Altitude Latitude Longitude Leg Dist Tot Dist Heading (true) Name
O LKMT APT - 0 ft / 0 m 49.69622˚ 18.11085˚ - 0 nm - Ostrava Mosnov
HLV NDB - 0 ft / 0 m 49.32285˚ 17.52840˚ 31 nm 31 nm 226° / 225° HOLESOV NDB
O LKTB APT - 0 ft / 0 m 49.15102˚ 16.69317˚ 34 nm 66 nm 253° / 252° Turany

Altitude Profile

Advertisement - Login to hide

LKMT

Details ICAO LKMT (OSR)
Name Ostrava Mosnov
Region Czech Republic
Timezone Europe/Prague (UTC+1.0)
Stats Elevation 843 ft / 257 m (AMSL)
Location 49.696217° 18.110855°
Runways 1
Magnetic Variation 4.763° E

METAR

LKMT 121030Z 25011KT 220V280 9999 FEW014 08/04 Q1005 NOSIG

Decode

TAF

TAF TAF LKMT 120500Z 1206/1312 21024KT CAVOK BECMG 1207/1208 23012KT 9999 BKN027 TEMPO 1208/1219 24014G26KT TEMPO 1208/1213 7000 SHRA BKN013 BECMG 1213/1215 CAVOK

Decode

Departure Runways

ID Width Length Bearing (true) Bearing (mag) Surface Threshold Offset Overrun Length
04 207 ft / 63 m 11,532 ft / 3,515 m 46.29° 41.53° Concrete 0 ft / 0 m 52 ft / 16 m
22 207 ft / 63 m 11,532 ft / 3,515 m 226.31° 221.55° Concrete 0 ft / 0 m 49 ft / 15 m

LKTB

Details ICAO LKTB (BRQ)
Name Turany
Region Czech Republic
Timezone Europe/Prague (UTC+1.0)
Stats Elevation 777 ft / 237 m (AMSL)
Location 49.151016° 16.693171°
Runways 2
Magnetic Variation 4.377° E

METAR

LKTB 121030Z 20007KT 9999 VCSH FEW017 07/03 Q1006 NOSIG

Decode

TAF

TAF LKTB 120500Z 1206/1312 24012KT 9999 BKN030 BECMG 1213/1215 CAVOK BECMG 1215/1217 29010KT BECMG 1302/1305 VRB02KT

Decode

Destination Runways

ID Width Length Bearing (true) Bearing (mag) Surface Threshold Offset Overrun Length
09 98 ft / 30 m 3,272 ft / 997 m 97.50° 93.12° Grass 0 ft / 0 m 0 ft / 0 m
10 197 ft / 60 m 8,674 ft / 2,644 m 97.52° 93.14° Concrete 0 ft / 0 m 0 ft / 0 m
27 98 ft / 30 m 3,272 ft / 997 m 277.51° 273.13° Grass 0 ft / 0 m 0 ft / 0 m
28 197 ft / 60 m 8,674 ft / 2,644 m 277.55° 273.17° Concrete 0 ft / 0 m 0 ft / 0 m

Approach Navaids

Runway Type Ident Frequency Range Bearing (true) Bearing (mag) Slope Elevation
28 Localiser BO 111.50 MHz 18 nm / 33 km 277.51° 273.13° - 771 ft / 235 m (AMSL)
28 Glidescope BO 111.50 MHz 10 nm / 19 km 277.53° 273.16° 3.00° 771 ft / 235 m (AMSL)
28 DME BO 111.50 MHz 18 nm / 33 km - - - 785 ft / 239 m (AMSL)

Popular Alternatives